• Join FlightAware (Why Join?)
  • Login
  • US Flag GB Flag 
10:22 EST


 

Airport Tracker/Info


-or-


 

Live Flight TrackerFlight Track Log ✈ UPS1337 ✈ 23-Aug-2014 ✈ KRDU - KSDF

Flight Track Log - Related Links

Times and Time Zones

All times are in EDT time to prevent confusion due to time zone crossing. See the UPS1337 flight status page for this flight to view local times or setup timezone preferences in your user account.

Time Position Orientation Groundspeed Altitude Reporting Facility
EDT Latitude Longitude Course Direction KTS MPH feet Rate Location/Type
23:50 35.8322 -78.8581 227° Southwest 231 266 3,600  Level Washington Center
23:56 35.9519 -79.5352 288° West 420 483 19,900 2,580 Climbing FlightAware ADS-B (KINT)
23:57 35.9785 -79.6383 288° West 427 491 21,500 2,280 Climbing FlightAware ADS-B (KINT)
23:57 36.0014 -79.7270 288° West 432 497 22,900 1,860 Climbing FlightAware ADS-B (KINT)
23:58 36.0265 -79.8258 288° West 443 510 24,000 1,560 Climbing FlightAware ADS-B (KINT)
23:59 36.0487 -79.9124 287° West 452 520 25,100 1,500 Climbing FlightAware ADS-B (KINT)
23:59 36.0753 -80.0172 288° West 463 533 26,000 1,380 Climbing FlightAware ADS-B (KINT)
00:00 36.1024 -80.1245 287° West 473 544 27,000 1,560 Climbing FlightAware ADS-B (KINT)
00:01 36.1321 -80.2429 287° West 477 549 28,300 1,800 Climbing FlightAware ADS-B (KINT)
00:01 36.1541 -80.3305 287° West 472 543 29,400 1,380 Climbing FlightAware ADS-B (KINT)
00:02 36.1799 -80.4334 287° West 476 548 30,000 480 Climbing FlightAware ADS-B (KINT)
00:02 36.2023 -80.5235 287° West 475 547 30,000  Level FlightAware ADS-B (KINT)
00:03 36.2285 -80.6287 287° West 469 540 30,000  Level FlightAware ADS-B (KINT)
00:04 36.2502 -80.7164 287° West 467 537 30,000  Level FlightAware ADS-B (KINT)
00:04 36.2700 -80.7966 287° West 467 537 30,000  Level FlightAware ADS-B (KINT)
00:05 36.2981 -80.9103 287° West 467 537 30,000  Level FlightAware ADS-B (KINT)
00:06 36.3232 -81.0134 287° West 469 540 30,000  Level FlightAware ADS-B (KINT)
00:06 36.3449 -81.1027 287° West 472 543 30,000  Level FlightAware ADS-B (KINT)
00:07 36.3730 -81.2181 287° West 475 547 30,000  Level FlightAware ADS-B (KINT)
00:07 36.3910 -81.2928 287° West 475 547 30,000  Level FlightAware ADS-B (KINT)
00:08 36.4026 -81.3407 287° West 478 550 30,000  Level FlightAware ADS-B (KINT)
00:09 36.4405 -81.4968 295° West 471 542 30,000  Level FlightAware ADS-B (KINT)
00:12 36.6252 -82.0004 295° West 439 505 30,000  Level FlightAware ADS-B (KINT)
00:14 36.6914 -82.1820 294° West 447 514 30,000  Level FlightAware ADS-B (KINT)
00:14 36.7139 -82.2444 294° West 443 510 30,000  Level Indianapolis Center
00:15 36.7664 -82.3892 294° West 461 531 30,000  Level Indianapolis Center
00:16 36.8203 -82.5386 294° West 470 541 30,000  Level Indianapolis Center
00:17 36.8747 -82.6897 294° West 474 545 30,000  Level Indianapolis Center
00:18 36.9306 -82.8472 294° West 474 545 30,000  Level Indianapolis Center
00:19 36.9869 -83.0053 294° West 474 545 30,000  Level Indianapolis Center
00:20 37.0400 -83.1561 294° West 475 547 30,000  Level Indianapolis Center
00:21 37.0933 -83.3078 294° West 475 547 30,000 -720 Level Indianapolis Center
00:27 37.3802 -84.1380 293° West 476 548 25,600 -1,020 Descending FlightAware ADS-B (KBRY)
00:28 37.4321 -84.2907 293° West 464 534 23,800 -2,160 Descending FlightAware ADS-B (KBRY)
00:29 37.4815 -84.4365 293° West 446 513 21,300 -2,640 Descending FlightAware ADS-B (KBRY)
00:30 37.5271 -84.5719 293° West 424 488 18,600 -2,700 Descending FlightAware ADS-B (KBRY)
00:31 37.5723 -84.7067 293° West 401 461 16,000 -2,580 Descending FlightAware ADS-B (KBRY)
00:32 37.6154 -84.8354 293° West 385 443 13,500 -2,580 Descending FlightAware ADS-B (KBRY)
00:32 37.6322 -84.8865 293° West 376 433 11,900 -1,560 Descending FlightAware ADS-B (KBRY)
00:34 37.7184 -85.0419 313° West 313 360 10,400 -1,020 Descending FlightAware ADS-B (KBRY)
00:35 37.7743 -85.1186 312° West 287 330 9,500 -960 Descending FlightAware ADS-B (KBRY)
00:36 37.8263 -85.1909 313° West 278 320 8,500 -1,320 Descending FlightAware ADS-B (KBRY)
00:37 37.8718 -85.2673 290° West 275 316 7,000 -1,500 Descending FlightAware ADS-B (KBRY)
00:38 37.8952 -85.3575 288° West 274 315 5,500 -1,260 Descending FlightAware ADS-B (KBRY)
00:39 37.9189 -85.4484 288° West 264 304 4,500 -1,020 Descending FlightAware ADS-B (KBRY)
00:40 37.9411 -85.5336 287° West 258 297 3,500 -840 Descending FlightAware ADS-B (KBRY)
00:41 37.9639 -85.6159 305° West 216 249 2,900 -360 Descending FlightAware ADS-B (KBRY)
00:42 37.9966 -85.6631 326° Northwest 165 190 2,900  Level FlightAware ADS-B (KBRY)
00:43 38.0373 -85.6804 346° North 138 159 2,900 -360 Level FlightAware ADS-B (KBRY)
00:44 38.0732 -85.6922 344° North 128 147 2,200 -660 Descending FlightAware ADS-B (KBRY)
00:45 38.1047 -85.7033 345° North 132 152 1,600 -660 Descending FlightAware ADS-B (KBRY)
00:45 38.1333 -85.7167 208° Southwest 131 151 1,100 -720 Descending Louisville TRACON
00:46 38.1386 -85.7147 344° North 134 154 1,000 -1,020 Descending FlightAware ADS-B (KBRY)
00:47 38.1741 -85.7365 208° Southwest  Level Estimated
00:51 38.1741 -85.7365 208° Southwest  Level Estimated